Time;durP1;ratioP1;P1;durP2;ratioP2;P2;SDS_P1;SDS_P2;PMS_P1;PMS_P2;Temp;Humidity;BMP_temperature;BMP_pressure;BME280_temperature;BME280_humidity;BME280_pressure;Samples;Min_cycle;Max_cycle;Signal;HPM_P1;HPM_P2
2021/05/26 00:02:14;;;;;;;4.22;3.70;;;;;;;14.07;92.25;101120.94;1719309;83;21615;-38
2021/05/26 00:04:41;;;;;;;4.17;3.37;;;;;;;14.04;92.32;101118.41;1719408;82;20982;-38
2021/05/26 00:07:07;;;;;;;4.70;3.70;;;;;;;14.03;92.47;101119.30;1719348;83;21029;-39
2021/05/26 00:09:34;;;;;;;4.47;3.85;;;;;;;14.03;92.61;101114.52;1719451;82;20906;-38
2021/05/26 00:12:00;;;;;;;7.25;4.00;;;;;;;14.02;92.54;101114.11;1719485;83;21006;-38
2021/05/26 00:14:29;;;;;;;4.45;4.03;;;;;;;13.98;92.48;101113.77;1719254;82;21013;-37
2021/05/26 00:16:58;;;;;;;6.03;4.33;;;;;;;13.95;92.58;101114.69;1692995;83;21022;-38
2021/05/26 00:19:24;;;;;;;8.83;4.05;;;;;;;13.94;92.82;101114.27;1719262;82;21005;-38
2021/05/26 00:21:50;;;;;;;7.20;3.10;;;;;;;13.92;92.86;101114.76;1719415;83;20962;-37
2021/05/26 00:24:18;;;;;;;3.60;3.30;;;;;;;13.91;92.91;101119.55;1719334;83;21093;-38
2021/05/26 00:26:45;;;;;;;22.45;3.65;;;;;;;13.90;92.97;101117.84;1719190;83;20965;-38
2021/05/26 00:29:13;;;;;;;5.67;3.62;;;;;;;13.87;92.98;101116.15;1693033;82;20915;-39
2021/05/26 00:31:40;;;;;;;10.28;4.42;;;;;;;13.86;93.11;101114.90;1719334;83;21014;-39
2021/05/26 00:34:07;;;;;;;5.03;4.37;;;;;;;13.85;93.25;101110.12;1719378;83;20986;-38
2021/05/26 00:36:33;;;;;;;8.45;3.52;;;;;;;13.85;93.23;101103.62;1719281;83;21097;-38
2021/05/26 00:39:00;;;;;;;8.10;4.05;;;;;;;13.81;93.00;101106.34;1716970;83;21014;-38
2021/05/26 00:41:30;;;;;;;5.33;4.03;;;;;;;13.76;92.92;101107.73;1705781;82;20951;-38
2021/05/26 00:43:56;;;;;;;6.25;4.45;;;;;;;13.70;92.95;101103.97;1705904;84;21494;-38
2021/05/26 00:46:22;;;;;;;4.10;3.80;;;;;;;13.64;93.07;101106.25;1705914;84;20886;-38
2021/05/26 00:48:50;;;;;;;11.35;5.00;;;;;;;13.60;93.25;101109.80;1705937;84;21106;-38
2021/05/26 00:51:16;;;;;;;4.67;4.17;;;;;;;13.55;93.43;101105.15;1705825;84;21020;-38
2021/05/26 00:53:43;;;;;;;10.32;4.35;;;;;;;13.51;93.50;101105.64;1705803;84;21575;-38
2021/05/26 00:56:09;;;;;;;4.60;3.98;;;;;;;13.48;93.79;101096.61;1705908;84;21050;-38
2021/05/26 00:58:37;;;;;;;10.78;4.17;;;;;;;13.44;94.00;101097.10;1705742;84;20983;-38
2021/05/26 01:01:03;;;;;;;6.35;4.42;;;;;;;13.45;94.24;101098.81;1705729;82;21065;-38
2021/05/26 01:03:32;;;;;;;6.40;4.20;;;;;;;13.43;94.29;101099.75;1705727;84;21034;-38
2021/05/26 01:05:58;;;;;;;4.10;3.72;;;;;;;13.42;94.47;101094.11;1705835;84;20994;-38
2021/05/26 01:08:25;;;;;;;6.05;4.30;;;;;;;13.39;94.56;101098.03;1705739;82;21560;-38
2021/05/26 01:10:55;;;;;;;7.62;4.53;;;;;;;13.37;94.64;101098.09;1705647;84;20955;-39
2021/05/26 01:13:26;;;;;;;4.62;4.05;;;;;;;13.34;94.79;101094.25;1705542;83;21828;-39
2021/05/26 01:15:52;;;;;;;6.10;4.30;;;;;;;13.31;94.88;101100.36;1705814;84;21006;-36
2021/05/26 01:18:28;;;;;;;6.95;4.83;;;;;;;13.29;94.96;101102.59;1705921;84;21548;-38
2021/05/26 01:21:01;;;;;;;12.13;4.47;;;;;;;13.26;95.12;101101.32;1704703;83;21041;-38
2021/05/26 01:23:28;;;;;;;7.03;4.30;;;;;;;13.26;95.39;101106.52;1705878;84;20979;-38
2021/05/26 01:26:05;;;;;;;6.72;4.60;;;;;;;13.25;95.53;101106.11;1705737;84;21103;-37
2021/05/26 01:28:33;;;;;;;12.45;4.67;;;;;;;13.23;95.56;101104.86;1705744;84;21018;-37
2021/05/26 01:31:00;;;;;;;7.08;4.92;;;;;;;13.20;95.69;101100.56;1705832;82;20994;-37
2021/05/26 01:33:28;;;;;;;8.58;5.12;;;;;;;13.18;95.75;101108.83;1705884;84;21460;-38
2021/05/26 01:35:56;;;;;;;7.03;5.30;;;;;;;13.17;95.92;101111.02;1705770;84;20971;-39
2021/05/26 01:38:24;;;;;;;8.68;5.17;;;;;;;13.17;96.06;101101.08;1705703;84;22238;-36
2021/05/26 01:41:00;;;;;;;6.87;4.15;;;;;;;13.15;96.06;101103.70;1705637;83;21002;-38
2021/05/26 01:43:27;;;;;;;6.78;4.78;;;;;;;13.14;96.11;101105.05;1705870;84;21010;-37
2021/05/26 01:45:54;;;;;;;7.97;5.05;;;;;;;13.09;96.13;101101.22;1705777;84;21010;-37
2021/05/26 01:48:21;;;;;;;10.82;4.47;;;;;;;13.08;96.29;101108.15;1705730;84;21030;-37
2021/05/26 01:50:49;;;;;;;5.28;4.25;;;;;;;13.09;96.54;101119.41;1705709;84;21133;-37
2021/05/26 01:53:18;;;;;;;5.55;5.03;;;;;;;13.10;96.63;101121.13;1705643;84;21033;-37
2021/05/26 01:55:44;;;;;;;5.75;4.47;;;;;;;13.08;96.79;101118.54;1705755;84;20920;-37
2021/05/26 01:58:15;;;;;;;5.90;4.83;;;;;;;13.14;97.05;101133.63;1705656;84;21006;-39
2021/05/26 02:00:43;;;;;;;5.53;4.55;;;;;;;13.14;97.19;101129.28;1705750;84;21022;-38
2021/05/26 02:03:11;;;;;;;5.28;4.78;;;;;;;13.15;97.20;101123.19;1705791;84;21040;-38
2021/05/26 02:05:38;;;;;;;6.65;4.60;;;;;;;13.13;97.15;101130.59;1705582;84;21042;-38
2021/05/26 02:08:07;;;;;;;5.22;4.37;;;;;;;13.11;97.23;101130.64;1705693;84;20970;-39
2021/05/26 02:13:19;;;;;;;9.05;4.87;;;;;;;13.17;97.56;101133.11;1705958;83;21010;-38
2021/05/26 02:15:48;;;;;;;5.33;4.37;;;;;;;13.17;97.52;101130.52;1704988;84;21087;-38
2021/05/26 02:18:15;;;;;;;6.28;4.50;;;;;;;13.17;97.57;101138.31;1705741;84;21026;-39
2021/05/26 02:20:43;;;;;;;9.68;4.37;;;;;;;13.16;97.53;101137.06;1705764;84;20911;-39
2021/05/26 02:23:13;;;;;;;7.12;4.50;;;;;;;13.17;97.73;101139.61;1705733;84;21576;-37
2021/05/26 02:25:41;;;;;;;5.10;4.60;;;;;;;13.19;97.78;101140.44;1705735;84;20931;-38
2021/05/26 02:28:09;;;;;;;4.85;4.37;;;;;;;13.22;97.92;101135.64;1705742;83;21037;-39
2021/05/26 02:30:37;;;;;;;4.87;4.42;;;;;;;13.25;98.02;101140.78;1705804;82;20955;-38
2021/05/26 02:33:05;;;;;;;5.85;4.22;;;;;;;13.30;98.12;101138.10;1705927;84;21554;-38
2021/05/26 02:35:33;;;;;;;4.65;4.22;;;;;;;13.32;98.08;101137.63;1705817;84;21022;-38
2021/05/26 02:38:00;;;;;;;7.05;4.62;;;;;;;13.36;98.14;101139.28;1705829;84;20907;-38
2021/05/26 02:40:28;;;;;;;5.95;4.10;;;;;;;13.38;98.16;101137.50;1712504;83;21052;-39
2021/05/26 02:42:56;;;;;;;4.20;3.90;;;;;;;13.41;98.18;101136.14;1718946;83;20934;-38
2021/05/26 02:45:23;;;;;;;5.35;4.35;;;;;;;13.48;98.28;101139.52;1719222;83;20962;-38
2021/05/26 02:47:51;;;;;;;4.65;4.17;;;;;;;13.54;98.38;101139.84;1719320;83;20978;-38
2021/05/26 02:50:18;;;;;;;4.58;4.10;;;;;;;13.58;98.41;101136.30;1719375;82;21078;-38
2021/05/26 03:09:53;;;;;;;7.95;6.70;;;;;;;13.91;98.82;101149.05;1775309;78;26357;-37
2021/05/26 03:12:23;;;;;;;6.75;6.17;;;;;;;13.93;98.80;101148.57;1730944;82;21004;-37
2021/05/26 03:27:45;;;;;;;4.35;3.95;;;;;;;15.15;97.18;101160.91;1847180;76;22668;-35
2021/05/26 03:30:15;;;;;;;4.47;3.50;;;;;;;15.29;96.62;101164.92;1817516;79;21111;-36
2021/05/26 03:32:42;;;;;;;6.50;3.70;;;;;;;15.44;96.23;101169.70;1817558;79;21067;-34
2021/05/26 03:35:10;;;;;;;7.17;4.33;;;;;;;15.59;95.81;101172.80;1817266;79;20969;-35
2021/05/26 03:37:37;;;;;;;10.28;4.35;;;;;;;15.74;95.37;101175.42;1817339;79;20918;-37
2021/05/26 03:40:06;;;;;;;4.37;3.98;;;;;;;15.91;94.85;101177.13;1817391;78;20918;-36
2021/05/26 03:42:33;;;;;;;4.42;3.83;;;;;;;16.07;94.24;101177.53;1817379;79;20878;-38
2021/05/26 03:45:00;;;;;;;4.70;3.10;;;;;;;16.26;93.44;101179.56;1817294;79;20999;-36
2021/05/26 03:47:29;;;;;;;4.92;3.90;;;;;;;16.49;92.76;101176.68;1817235;78;20870;-38
2021/05/26 03:49:57;;;;;;;6.45;4.30;;;;;;;16.76;91.93;101174.08;1817391;78;21101;-36
2021/05/26 03:52:23;;;;;;;9.40;3.47;;;;;;;17.08;90.80;101169.11;1817509;79;21597;-37
2021/05/26 03:54:51;;;;;;;6.83;3.27;;;;;;;17.42;89.66;101172.30;1817262;79;20965;-36
2021/05/26 03:57:20;;;;;;;6.92;3.00;;;;;;;17.78;88.50;101169.70;1817435;79;21130;-36
2021/05/26 03:59:46;;;;;;;7.85;3.50;;;;;;;18.15;86.97;101171.41;1817284;79;20930;-37
2021/05/26 04:02:13;;;;;;;6.78;3.90;;;;;;;18.50;85.48;101167.83;1817189;79;20945;-36
2021/05/26 04:04:41;;;;;;;7.90;3.75;;;;;;;18.85;83.80;101168.16;1817275;79;20941;-38
2021/05/26 04:07:10;;;;;;;9.63;3.12;;;;;;;19.15;81.39;101169.55;1786291;79;20961;-37
2021/05/26 04:09:36;;;;;;;4.30;3.15;;;;;;;19.43;79.85;101173.15;1817474;79;21137;-38
2021/05/26 04:12:03;;;;;;;7.33;3.17;;;;;;;19.74;78.67;101162.56;1817396;79;20910;-36
2021/05/26 04:14:45;;;;;;;6.25;3.08;;;;;;;20.13;77.20;101163.91;1816084;79;20950;-36
2021/05/26 04:17:20;;;;;;;4.50;2.80;;;;;;;20.53;75.17;101172.03;1786156;79;20966;-36
2021/05/26 04:20:02;;;;;;;4.72;3.00;;;;;;;20.87;73.06;101167.35;1779008;80;21597;-37
2021/05/26 04:22:26;;;;;;;4.80;2.95;;;;;;;21.08;70.43;101170.66;1784816;79;21099;-36
2021/05/26 04:24:54;;;;;;;9.08;3.37;;;;;;;21.25;69.30;101169.32;1784867;80;20898;-37
2021/05/26 04:27:21;;;;;;;3.70;2.92;;;;;;;21.46;68.16;101168.27;1795298;79;21087;-38
2021/05/26 04:29:49;;;;;;;4.72;2.90;;;;;;;21.68;67.03;101167.53;1799740;79;21592;-37
2021/05/26 04:32:16;;;;;;;12.07;2.90;;;;;;;21.88;65.93;101177.94;1799706;79;21051;-37
2021/05/26 04:34:42;;;;;;;8.88;2.83;;;;;;;21.93;64.46;101175.89;1799567;79;21120;-37
2021/05/26 04:37:09;;;;;;;7.03;3.15;;;;;;;22.01;65.00;101176.80;1799390;79;20937;-38
2021/05/26 04:39:35;;;;;;;4.92;2.62;;;;;;;22.19;63.86;101168.31;1780277;80;20867;-38
2021/05/26 04:42:02;;;;;;;6.25;3.27;;;;;;;22.27;63.53;101175.31;1780157;80;21017;-37
2021/05/26 04:44:29;;;;;;;5.12;2.77;;;;;;;22.29;62.37;101179.20;1780068;80;20953;-37
2021/05/26 04:46:55;;;;;;;5.37;2.98;;;;;;;22.37;62.77;101169.92;1780145;80;21079;-36
2021/05/26 04:49:24;;;;;;;5.03;3.20;;;;;;;22.61;62.34;101172.56;1780024;80;20947;-36
2021/05/26 04:51:50;;;;;;;6.83;3.10;;;;;;;22.83;61.27;101168.19;1780194;80;21001;-36
2021/05/26 04:54:17;;;;;;;4.58;2.80;;;;;;;22.93;61.16;101163.22;1780169;80;21005;-37
2021/05/26 04:56:44;;;;;;;3.25;2.75;;;;;;;23.13;60.76;101160.72;1780229;80;21490;-37
2021/05/26 04:59:12;;;;;;;4.42;3.20;;;;;;;23.29;59.60;101157.16;1780153;80;21036;-38
2021/05/26 05:01:39;;;;;;;5.72;2.70;;;;;;;23.46;59.80;101160.08;1780213;80;20962;-37
2021/05/26 05:04:07;;;;;;;7.42;2.98;;;;;;;23.67;59.42;101167.98;1780077;80;20890;-37
2021/05/26 05:06:33;;;;;;;5.33;2.67;;;;;;;23.89;59.31;101172.41;1780088;80;20930;-38
2021/05/26 05:09:00;;;;;;;7.15;2.60;;;;;;;24.22;58.63;101169.88;1780314;80;21013;-36
2021/05/26 05:11:27;;;;;;;3.72;2.77;;;;;;;24.48;57.20;101161.53;1780133;80;22557;-36
2021/05/26 05:13:53;;;;;;;5.55;2.60;;;;;;;24.68;56.31;101166.84;1780094;80;20898;-36
2021/05/26 05:16:20;;;;;;;4.47;2.70;;;;;;;24.82;55.35;101167.27;1780104;79;20883;-38
2021/05/26 05:18:47;;;;;;;4.45;2.65;;;;;;;24.90;54.90;101168.07;1780253;80;20997;-37
2021/05/26 05:21:14;;;;;;;4.10;2.65;;;;;;;25.00;53.71;101178.02;1780077;79;20965;-38
2021/05/26 05:23:40;;;;;;;6.15;2.50;;;;;;;25.01;54.18;101177.94;1780087;80;21452;-37
2021/05/26 05:26:07;;;;;;;5.25;2.75;;;;;;;25.20;53.97;101177.50;1780046;80;20898;-36
2021/05/26 05:28:33;;;;;;;11.75;3.35;;;;;;;25.45;53.50;101182.87;1784583;80;21506;-38
2021/05/26 05:30:59;;;;;;;8.78;3.33;;;;;;;25.63;52.06;101184.73;1784481;80;21419;-37
2021/05/26 05:33:26;;;;;;;3.22;2.67;;;;;;;25.61;52.75;101183.99;1784510;80;21487;-37
2021/05/26 05:35:53;;;;;;;6.28;2.70;;;;;;;25.70;53.10;101176.73;1784492;80;21825;-37
2021/05/26 05:38:19;;;;;;;9.05;2.90;;;;;;;25.89;52.01;101188.17;1784502;80;20988;-38
2021/05/26 05:40:47;;;;;;;3.00;2.42;;;;;;;25.77;50.12;101183.77;1784462;80;20835;-38
2021/05/26 05:43:16;;;;;;;7.87;2.67;;;;;;;25.64;50.33;101186.42;1784498;80;21490;-37
2021/05/26 05:45:42;;;;;;;9.33;2.40;;;;;;;25.52;50.28;101190.33;1784495;80;20973;-37
2021/05/26 05:48:10;;;;;;;4.65;2.60;;;;;;;25.37;50.00;101184.73;1784584;80;21084;-36
2021/05/26 05:50:37;;;;;;;2.50;2.37;;;;;;;25.27;50.56;101184.55;1784460;80;20893;-37
2021/05/26 05:53:07;;;;;;;5.42;2.67;;;;;;;25.15;50.73;101181.41;1784639;80;20882;-36
2021/05/26 05:55:34;;;;;;;4.72;2.50;;;;;;;25.07;51.77;101168.70;1784573;80;20942;-36
2021/05/26 05:58:03;;;;;;;4.78;2.65;;;;;;;25.28;51.38;101182.27;1784635;80;20961;-36
2021/05/26 06:00:35;;;;;;;3.42;2.42;;;;;;;25.32;50.63;101187.73;1784436;80;20981;-37
2021/05/26 06:03:02;;;;;;;3.50;2.62;;;;;;;25.43;49.94;101190.09;1784389;80;21000;-37
2021/05/26 06:05:28;;;;;;;3.58;2.10;;;;;;;25.46;49.76;101186.76;1784399;80;20976;-38
2021/05/26 06:07:55;;;;;;;6.55;2.37;;;;;;;25.52;49.64;101184.20;1784552;80;21025;-37
2021/05/26 06:10:21;;;;;;;4.75;2.60;;;;;;;25.53;49.27;101186.72;1784453;80;20945;-36
2021/05/26 06:12:49;;;;;;;5.20;2.22;;;;;;;25.60;49.15;101187.60;1784442;80;21083;-38
2021/05/26 06:15:16;;;;;;;4.10;2.10;;;;;;;25.70;48.30;101189.13;1784426;79;21574;-37
2021/05/26 06:17:43;;;;;;;7.12;2.20;;;;;;;25.68;48.50;101191.41;1784453;80;21475;-38
2021/05/26 06:20:12;;;;;;;4.10;2.40;;;;;;;25.66;48.64;101184.54;1784384;80;21557;-37
2021/05/26 06:22:39;;;;;;;7.33;2.80;;;;;;;25.55;48.42;101194.57;1784506;80;20957;-38
2021/05/26 06:25:08;;;;;;;4.30;2.50;;;;;;;25.52;48.82;101189.00;1784431;80;20985;-36
2021/05/26 06:27:34;;;;;;;7.87;2.80;;;;;;;25.46;48.21;101189.41;1780969;80;21088;-37
2021/05/26 06:30:01;;;;;;;8.65;3.00;;;;;;;25.46;47.64;101192.52;1777269;80;21013;-38
2021/05/26 06:32:27;;;;;;;5.17;2.50;;;;;;;25.49;46.42;101185.70;1777191;80;20989;-38
2021/05/26 06:34:54;;;;;;;2.30;2.00;;;;;;;25.52;47.27;101182.87;1777363;80;20882;-36
2021/05/26 06:37:20;;;;;;;10.43;2.40;;;;;;;25.54;45.71;101188.41;1777328;80;21040;-37
2021/05/26 06:39:47;;;;;;;3.70;2.30;;;;;;;25.52;45.72;101186.34;1777272;80;20985;-36
2021/05/26 06:42:14;;;;;;;12.33;2.22;;;;;;;25.46;45.42;101188.55;1777306;80;20989;-37
2021/05/26 06:44:40;;;;;;;3.33;1.70;;;;;;;25.29;45.54;101186.62;1777325;80;21033;-37
2021/05/26 06:47:08;;;;;;;11.57;2.45;;;;;;;25.25;45.81;101186.43;1777375;80;20929;-37
2021/05/26 06:49:34;;;;;;;5.58;2.33;;;;;;;25.16;46.53;101184.43;1777266;80;21724;-36
2021/05/26 06:52:01;;;;;;;8.08;2.20;;;;;;;24.86;46.62;101194.84;1777200;80;21508;-36
2021/05/26 06:54:27;;;;;;;2.33;2.10;;;;;;;24.67;47.10;101192.07;1777212;80;21634;-35
2021/05/26 06:56:54;;;;;;;5.47;2.27;;;;;;;24.52;47.47;101195.27;1777279;80;20954;-37
2021/05/26 06:59:21;;;;;;;8.35;2.30;;;;;;;24.50;47.23;101192.73;1777208;80;21009;-37
2021/05/26 07:01:48;;;;;;;3.90;2.15;;;;;;;24.73;47.15;101185.53;1777161;80;21087;-36
2021/05/26 07:04:15;;;;;;;3.70;2.12;;;;;;;24.98;46.49;101189.20;1777265;80;20930;-37
2021/05/26 07:06:42;;;;;;;7.30;2.58;;;;;;;25.15;45.92;101179.63;1777160;80;20930;-36
2021/05/26 07:09:08;;;;;;;3.17;2.40;;;;;;;25.36;45.36;101187.88;1777332;80;21021;-37
2021/05/26 07:11:35;;;;;;;4.55;2.37;;;;;;;25.62;44.93;101186.55;1777328;80;21372;-37
2021/05/26 07:14:02;;;;;;;4.05;2.40;;;;;;;25.92;45.25;101190.61;1777251;80;21142;-37
2021/05/26 07:16:29;;;;;;;5.62;2.37;;;;;;;26.23;43.86;101187.56;1777131;79;20970;-37
2021/05/26 07:18:59;;;;;;;10.38;2.40;;;;;;;26.55;43.42;101188.30;1777340;80;20882;-37
2021/05/26 07:21:24;;;;;;;3.05;2.47;;;;;;;26.81;40.80;101184.14;1777117;80;21471;-37
2021/05/26 07:23:51;;;;;;;2.92;2.72;;;;;;;26.99;41.65;101189.05;1777473;80;21340;-38
2021/05/26 07:26:18;;;;;;;8.85;2.92;;;;;;;27.11;41.04;101194.73;1777154;80;21001;-36
2021/05/26 07:28:45;;;;;;;6.97;3.15;;;;;;;27.20;41.08;101184.73;1777104;80;20918;-37
2021/05/26 07:31:11;;;;;;;15.28;3.58;;;;;;;27.27;40.89;101184.25;1777297;80;20975;-37
2021/05/26 07:33:38;;;;;;;7.05;3.92;;;;;;;27.38;41.24;101179.79;1777341;80;21009;-38
2021/05/26 07:36:05;;;;;;;11.40;3.65;;;;;;;27.53;41.66;101179.09;1777252;80;20930;-38
2021/05/26 07:38:31;;;;;;;5.67;3.25;;;;;;;27.61;39.91;101173.63;1777348;80;21155;-36
2021/05/26 07:40:58;;;;;;;16.75;3.85;;;;;;;27.54;40.15;101175.45;1777143;80;20930;-37
2021/05/26 07:43:25;;;;;;;4.15;2.55;;;;;;;27.56;40.13;101173.16;1777426;80;21546;-38
2021/05/26 07:45:51;;;;;;;11.78;2.70;;;;;;;27.70;40.58;101178.23;1777162;80;21547;-37
2021/05/26 07:48:17;;;;;;;2.30;2.02;;;;;;;27.83;40.15;101174.10;1777364;80;21427;-37
2021/05/26 07:50:45;;;;;;;7.67;1.95;;;;;;;27.94;39.54;101175.89;1777339;80;21660;-38
2021/05/26 07:53:11;;;;;;;4.95;1.72;;;;;;;28.18;38.20;101176.22;1777101;80;21025;-37
2021/05/26 07:55:38;;;;;;;4.55;1.95;;;;;;;28.06;37.33;101174.88;1777148;80;21009;-38
2021/05/26 07:58:05;;;;;;;8.58;1.80;;;;;;;27.70;38.77;101174.24;1777136;80;20851;-37
2021/05/26 08:00:32;;;;;;;7.78;2.37;;;;;;;27.57;38.89;101173.52;1777174;80;20962;-37
2021/05/26 08:02:58;;;;;;;2.62;2.22;;;;;;;27.44;38.93;101179.80;1777341;80;21638;-36
2021/05/26 08:05:24;;;;;;;11.00;2.47;;;;;;;27.42;39.15;101169.77;1777088;80;21029;-36
2021/05/26 08:07:51;;;;;;;9.58;2.20;;;;;;;27.30;38.54;101174.23;1777046;80;20918;-38
2021/05/26 08:10:17;;;;;;;2.83;2.15;;;;;;;27.30;39.08;101170.72;1777260;80;20946;-37
2021/05/26 08:12:44;;;;;;;7.47;2.72;;;;;;;27.56;38.75;101171.36;1777294;80;20981;-37
2021/05/26 08:15:13;;;;;;;10.75;2.75;;;;;;;27.71;39.11;101168.42;1777331;79;21083;-38
2021/05/26 08:17:40;;;;;;;9.70;1.85;;;;;;;27.73;39.35;101166.02;1777361;80;21657;-37
2021/05/26 08:20:08;;;;;;;5.33;2.22;;;;;;;27.59;37.96;101166.27;1777466;80;20978;-37
2021/05/26 08:22:36;;;;;;;7.72;2.85;;;;;;;27.08;38.53;101169.73;1777291;80;21529;-36
2021/05/26 08:25:04;;;;;;;7.50;2.60;;;;;;;26.58;40.28;101172.63;1777483;80;21009;-36
2021/05/26 08:27:31;;;;;;;3.92;2.20;;;;;;;26.16;40.73;101171.70;1778512;80;21077;-37
2021/05/26 08:30:01;;;;;;;2.12;2.02;;;;;;;26.12;40.08;101172.41;1784431;80;20890;-36
2021/05/26 08:32:28;;;;;;;5.37;1.70;;;;;;;26.24;40.53;101171.52;1784647;80;20965;-36
2021/05/26 08:34:55;;;;;;;9.03;2.20;;;;;;;26.22;40.85;101175.27;1784555;80;21325;-37
2021/05/26 08:37:22;;;;;;;16.97;2.30;;;;;;;26.10;39.99;101173.83;1784633;80;20961;-37
2021/05/26 08:39:49;;;;;;;4.47;1.95;;;;;;;26.00;40.50;101170.16;1784749;80;21088;-37
2021/05/26 08:42:17;;;;;;;5.30;1.87;;;;;;;26.27;40.34;101166.47;1784548;80;21060;-40
2021/05/26 08:44:44;;;;;;;6.87;2.00;;;;;;;26.77;40.80;101167.59;1784570;80;20909;-38
2021/05/26 08:47:16;;;;;;;3.20;1.67;;;;;;;27.37;41.10;101158.63;1784279;80;21550;-38
2021/05/26 08:49:45;;;;;;;8.35;2.05;;;;;;;27.85;38.16;101164.66;1784576;80;20921;-39
2021/05/26 08:52:16;;;;;;;1.82;1.70;;;;;;;28.18;37.10;101159.75;1784607;80;21095;-38
2021/05/26 08:54:49;;;;;;;2.35;1.95;;;;;;;28.43;36.32;101159.55;1757026;80;20977;-38
2021/05/26 08:57:16;;;;;;;2.70;1.87;;;;;;;28.42;36.48;101150.70;1784598;80;20965;-38
2021/05/26 08:59:42;;;;;;;5.40;1.87;;;;;;;28.42;35.35;101146.70;1784543;80;21538;-37
2021/05/26 09:02:10;;;;;;;5.15;1.87;;;;;;;28.51;35.86;101147.76;1784565;80;21012;-38
2021/05/26 09:04:37;;;;;;;6.35;1.80;;;;;;;28.25;35.79;101148.95;1784595;80;21071;-38
2021/05/26 09:07:21;;;;;;;5.70;1.90;;;;;;;27.82;36.13;101153.80;1784457;80;20966;-38
2021/05/26 09:09:58;;;;;;;1.65;1.40;;;;;;;27.35;38.33;101153.92;1784686;80;21546;-36
2021/05/26 09:12:34;;;;;;;2.15;1.90;;;;;;;27.16;37.20;101151.41;1784574;80;20974;-36
2021/05/26 09:15:11;;;;;;;3.87;2.08;;;;;;;27.08;38.10;101145.83;1783628;80;20949;-37
2021/05/26 09:17:39;;;;;;;1.87;1.75;;;;;;;27.33;38.03;101151.41;1784576;80;21100;-36
2021/05/26 09:20:30;;;;;;;3.72;1.60;;;;;;;27.45;37.31;101144.28;1784489;80;20898;-37
2021/05/26 09:23:20;;;;;;;1.98;1.60;;;;;;;27.73;37.92;101135.44;1784677;80;20989;-36
2021/05/26 09:25:52;;;;;;;4.60;2.20;;;;;;;27.87;37.14;101140.11;1784428;80;21541;-37
2021/05/26 09:28:34;;;;;;;4.75;1.65;;;;;;;27.57;37.37;101141.63;1783094;80;20935;-37
2021/05/26 09:31:09;;;;;;;1.65;1.50;;;;;;;27.50;37.53;101142.09;1780104;80;21095;-37
2021/05/26 09:33:45;;;;;;;3.25;1.60;;;;;;;27.85;38.08;101139.39;1780106;80;20918;-37
2021/05/26 09:36:25;;;;;;;3.10;1.67;;;;;;;27.96;37.83;101140.20;1780160;80;20985;-38
2021/05/26 09:39:00;;;;;;;4.87;2.35;;;;;;;28.26;36.18;101140.50;1779933;80;21004;-38
2021/05/26 09:41:32;;;;;;;4.08;1.65;;;;;;;28.56;37.90;101146.05;1780050;80;20993;-37
2021/05/26 09:44:09;;;;;;;2.27;1.80;;;;;;;28.74;37.62;101143.63;1780097;80;21083;-37
2021/05/26 09:46:35;;;;;;;4.47;1.80;;;;;;;29.12;37.71;101138.16;1779258;80;20997;-37
2021/05/26 09:49:17;;;;;;;2.77;1.30;;;;;;;29.54;36.07;101141.22;1780184;80;20957;-37
2021/05/26 09:51:51;;;;;;;2.27;1.62;;;;;;;29.44;35.33;101146.55;1780055;80;20871;-38
2021/05/26 09:54:23;;;;;;;2.52;1.60;;;;;;;29.15;34.98;101143.23;1780153;80;21084;-37
2021/05/26 09:57:06;;;;;;;2.77;2.00;;;;;;;29.00;34.60;101148.06;1780127;80;21702;-37
2021/05/26 09:59:35;;;;;;;3.25;1.60;;;;;;;28.94;35.11;101148.13;1779612;80;20946;-38
2021/05/26 10:02:06;;;;;;;1.67;1.40;;;;;;;28.90;35.61;101145.35;1780199;80;20977;-37
2021/05/26 10:04:30;;;;;;;2.70;1.50;;;;;;;28.99;36.04;101150.88;1779536;80;20929;-37
2021/05/26 10:07:15;;;;;;;2.15;1.75;;;;;;;28.92;35.37;101147.89;1780151;80;20945;-38
2021/05/26 10:09:44;;;;;;;2.60;1.60;;;;;;;28.66;35.30;101142.45;1780125;80;21936;-38
2021/05/26 10:12:19;;;;;;;1.55;1.47;;;;;;;28.45;36.33;101137.12;1771806;80;20973;-38
2021/05/26 10:14:47;;;;;;;1.90;1.47;;;;;;;28.32;36.93;101143.97;1780044;80;20990;-38
2021/05/26 10:17:19;;;;;;;1.60;1.50;;;;;;;28.15;37.61;101141.83;1761380;81;21055;-37
2021/05/26 10:19:43;;;;;;;12.28;3.05;;;;;;;28.17;36.89;101144.77;1779601;80;20929;-37
2021/05/26 10:22:10;;;;;;;11.78;2.30;;;;;;;28.44;36.36;101138.61;1761439;81;21075;-37
2021/05/26 10:24:36;;;;;;;6.17;1.77;;;;;;;28.46;36.14;101138.81;1779912;80;20993;-37
2021/05/26 10:27:06;;;;;;;4.28;1.75;;;;;;;28.70;36.36;101132.89;1761424;81;20912;-38
2021/05/26 10:29:34;;;;;;;7.05;1.60;;;;;;;29.13;36.05;101130.53;1782903;80;20969;-36
2021/05/26 10:32:12;;;;;;;7.15;1.95;;;;;;;29.28;34.07;101132.84;1784497;80;20985;-37
2021/05/26 10:34:51;;;;;;;4.62;2.08;;;;;;;28.92;34.46;101129.25;1779286;80;21044;-38
2021/05/26 10:37:39;;;;;;;14.65;2.08;;;;;;;28.68;36.05;101125.02;1784395;80;20969;-38
2021/05/26 10:40:33;;;;;;;8.18;2.52;;;;;;;29.10;36.30;101126.33;1784511;80;21043;-38
2021/05/26 10:43:22;;;;;;;3.27;2.40;;;;;;;29.53;35.57;101129.72;1784447;80;20953;-38
2021/05/26 10:45:49;;;;;;;7.05;2.87;;;;;;;29.75;33.75;101122.47;1784504;80;20921;-37
2021/05/26 10:48:44;;;;;;;4.62;2.67;;;;;;;29.72;35.16;101117.89;1784416;80;21668;-37
2021/05/26 10:51:11;;;;;;;4.80;2.70;;;;;;;29.88;34.46;101118.20;1784405;80;21008;-38
2021/05/26 10:53:43;;;;;;;8.63;3.17;;;;;;;30.05;34.23;101116.69;1784501;80;20902;-37
2021/05/26 10:56:36;;;;;;;5.53;2.98;;;;;;;29.94;33.51;101115.47;1784357;80;21605;-36
2021/05/26 10:59:14;;;;;;;5.85;3.20;;;;;;;30.03;32.75;101116.47;1784382;80;20934;-38
2021/05/26 11:02:07;;;;;;;4.05;3.25;;;;;;;30.33;34.39;101105.30;1780887;80;21513;-38
2021/05/26 11:04:36;;;;;;;5.47;2.92;;;;;;;30.22;32.70;101114.30;1784314;80;20898;-37
2021/05/26 11:07:25;;;;;;;6.83;2.85;;;;;;;30.00;33.25;101106.91;1784449;80;20933;-37
2021/05/26 11:10:05;;;;;;;8.65;3.22;;;;;;;29.87;32.67;101104.98;1784319;80;20997;-36
2021/05/26 11:12:58;;;;;;;6.37;3.30;;;;;;;30.25;34.18;101098.00;1731048;82;20969;-36
2021/05/26 11:15:44;;;;;;;10.98;3.00;;;;;;;30.61;33.50;101092.89;1781961;79;21007;-37
2021/05/26 11:20:52;;;;;;;12.63;3.50;;;;;;;30.97;31.26;101088.20;1784494;80;21434;-37
2021/05/26 11:23:18;;;;;;;8.78;3.12;;;;;;;30.97;32.09;101082.86;1784336;80;20930;-38
2021/05/26 11:25:55;;;;;;;6.35;3.10;;;;;;;30.90;31.68;101087.94;1784472;80;20925;-38
2021/05/26 11:28:31;;;;;;;14.53;3.20;;;;;;;30.54;32.14;101086.42;1784642;80;21063;-38
2021/05/26 11:31:04;;;;;;;7.28;3.08;;;;;;;30.30;32.51;101081.54;1784399;80;20854;-38
2021/05/26 11:33:31;;;;;;;12.53;3.33;;;;;;;30.22;32.55;101072.43;1784417;80;21467;-38
2021/05/26 11:36:09;;;;;;;10.98;3.17;;;;;;;30.35;32.71;101073.45;1784466;80;20918;-37
2021/05/26 11:38:35;;;;;;;13.90;3.10;;;;;;;30.51;32.27;101076.03;1784585;80;20913;-38
2021/05/26 11:41:16;;;;;;;18.05;3.58;;;;;;;30.70;31.45;101069.81;1784609;80;21048;-37
2021/05/26 11:43:44;;;;;;;6.65;3.05;;;;;;;30.34;32.46;101066.44;1784485;80;20850;-38
2021/05/26 11:46:11;;;;;;;10.08;3.58;;;;;;;30.11;32.50;101068.08;1784432;80;21004;-39
2021/05/26 11:48:37;;;;;;;23.87;4.40;;;;;;;29.97;32.75;101063.16;1784577;80;20993;-38
2021/05/26 11:51:04;;;;;;;9.63;3.35;;;;;;;29.44;33.83;101071.90;1784593;80;20890;-39
2021/05/26 11:53:32;;;;;;;6.42;2.70;;;;;;;29.31;33.84;101068.59;1756291;80;21825;-38
2021/05/26 11:56:00;;;;;;;5.05;2.92;;;;;;;29.51;32.81;101065.03;1784630;80;21507;-39
2021/05/26 11:58:36;;;;;;;19.05;3.80;;;;;;;29.82;33.16;101057.41;1784552;80;20921;-35
2021/05/26 12:01:13;;;;;;;7.42;3.22;;;;;;;30.24;32.95;101052.28;1784419;80;20949;-38
2021/05/26 12:03:38;;;;;;;7.00;3.15;;;;;;;30.04;31.15;101050.97;1784548;80;20866;-37
2021/05/26 12:06:05;;;;;;;6.03;2.58;;;;;;;29.42;33.38;101065.02;1784488;80;22197;-38
2021/05/26 12:08:41;;;;;;;11.55;3.67;;;;;;;28.81;33.76;101064.92;1784510;80;20909;-38
2021/05/26 12:11:14;;;;;;;11.38;3.22;;;;;;;28.38;34.78;101059.61;1784624;80;27963;-38